Time;durP1;ratioP1;P1;durP2;ratioP2;P2;SDS_P1;SDS_P2;PMS_P1;PMS_P2;Temp;Humidity;BMP_temperature;BMP_pressure;BME280_temperature;BME280_humidity;BME280_pressure;Samples;Min_cycle;Max_cycle;Signal;HPM_P1;HPM_P2
2023/01/15 00:00:38;;;;;;;22.33;11.35;;;;;;;;;;2072438;28;20061;-88
2023/01/15 00:01:39;;;;;;;;;;;;;;;;;;2065408;28;20119;-88
2023/01/15 00:02:39;;;;;;;19.47;10.17;;;;;;;;;;2080162;28;19906;-89
2023/01/15 00:03:39;;;;;;;18.80;9.90;;;;;;;;;;2074501;28;20061;-87
2023/01/15 00:04:40;;;;;;;;;;;;;;;;;;2065946;28;20176;-87
2023/01/15 00:05:40;;;;;;;18.20;9.93;;;;;;;;;;2072606;28;19989;-88
2023/01/15 00:06:41;;;;;;;;;;;;;;;;;;2063823;28;20424;-89
2023/01/15 00:07:42;;;;;;;18.75;10.10;;;;;;;;;;2064040;28;20073;-89
2023/01/15 00:08:43;;;;;;;18.33;9.85;;;;;;;;;;2071232;28;20061;-89
2023/01/15 00:09:44;;;;;;;;;;;;;;;;;;2071724;28;20074;-90
2023/01/15 00:10:44;;;;;;;19.20;9.27;;;;;;;;;;2062828;28;19909;-88
2023/01/15 00:11:45;;;;;;;21.70;9.82;;;;;;;;;;2054914;28;20524;-88
2023/01/15 00:12:45;;;;;;;;;;;;;;;;;;2063314;28;20034;-88
2023/01/15 00:13:46;;;;;;;17.60;10.23;;;;;;;;;;2062860;28;19916;-89
2023/01/15 00:14:47;;;;;;;18.60;9.65;;;;;;;;;;2054433;28;20057;-89
2023/01/15 00:15:47;;;;;;;;;;;;;;;;;;2071720;28;20034;-90
2023/01/15 00:16:51;;;;;;;18.67;9.57;;;;;;;;;;2071257;28;19953;-90
2023/01/15 00:17:51;;;;;;;19.83;9.20;;;;;;;;;;2063203;28;20065;-90
2023/01/15 00:18:56;;;;;;;;;;;;;;;;;;2063370;28;20030;-90
2023/01/15 00:19:56;;;;;;;18.00;9.38;;;;;;;;;;2063642;28;19909;-90
2023/01/15 00:21:01;;;;;;;;;;;;;;;;;;2071879;28;20053;-90
2023/01/15 00:22:01;;;;;;;17.40;10.07;;;;;;;;;;2071688;28;19913;-89
2023/01/15 00:23:02;;;;;;;;;;;;;;;;;;2072044;28;20049;-89
2023/01/15 00:28:00;;;;;;;16.02;9.15;;;;;;;;;;2073367;28;20034;-89
2023/01/15 00:29:00;;;;;;;;;;;;;;;;;;2073712;28;20513;-89
2023/01/15 00:30:00;;;;;;;18.53;9.37;;;;;;;;;;2064156;28;20455;-89
2023/01/15 00:31:01;;;;;;;15.43;8.93;;;;;;;;;;2056548;28;20062;-88
2023/01/15 00:32:06;;;;;;;14.75;9.40;;;;;;;;;;2056347;28;20113;-89
2023/01/15 00:33:07;;;;;;;16.38;8.23;;;;;;;;;;2065193;28;20030;-89
2023/01/15 00:34:08;;;;;;;16.25;8.45;;;;;;;;;;2073223;28;20435;-89
2023/01/15 00:35:16;;;;;;;;;;;;;;;;;;2073761;28;20030;-89
2023/01/15 00:36:16;;;;;;;13.95;8.00;;;;;;;;;;2072896;28;20390;-89
2023/01/15 00:37:17;;;;;;;;;;;;;;;;;;2064721;28;20038;-89
2023/01/15 00:38:17;;;;;;;14.13;7.90;;;;;;;;;;2072617;28;19916;-89
2023/01/15 00:39:17;;;;;;;;;;;;;;;;;;2072633;28;20420;-89
2023/01/15 00:40:19;;;;;;;14.27;8.82;;;;;;;;;;2064613;28;19910;-89
2023/01/15 00:41:19;;;;;;;16.65;9.02;;;;;;;;;;2072827;28;20036;-89
2023/01/15 00:42:20;;;;;;;;;;;;;;;;;;2064578;28;20321;-89
2023/01/15 00:43:20;;;;;;;19.08;9.82;;;;;;;;;;2064436;28;19969;-89
2023/01/15 00:44:21;;;;;;;16.10;9.65;;;;;;;;;;2064226;28;20619;-89
2023/01/15 00:45:21;;;;;;;;;;;;;;;;;;2056496;28;20038;-89
2023/01/15 00:46:22;;;;;;;18.27;9.97;;;;;;;;;;2072161;28;19984;-89
2023/01/15 00:47:22;;;;;;;19.05;11.02;;;;;;;;;;2072207;28;20187;-89
2023/01/15 00:48:23;;;;;;;22.23;12.18;;;;;;;;;;2056265;28;20065;-90
2023/01/15 00:49:23;;;;;;;;;;;;;;;;;;2064751;28;20069;-89
2023/01/15 00:50:23;;;;;;;21.20;11.87;;;;;;;;;;2056214;28;19910;-90
2023/01/15 00:51:24;;;;;;;;;;;;;;;;;;2064679;28;20104;-89
2023/01/15 00:52:24;;;;;;;22.55;12.70;;;;;;;;;;2056328;28;19910;-90
2023/01/15 00:53:25;;;;;;;20.15;11.95;;;;;;;;;;2056123;28;20060;-89
2023/01/15 00:54:25;;;;;;;;;;;;;;;;;;2064598;28;20022;-89
2023/01/15 00:55:25;;;;;;;18.73;11.33;;;;;;;;;;2056299;28;19914;-90
2023/01/15 00:56:26;;;;;;;;;;;;;;;;;;2056682;28;20110;-90
2023/01/15 00:57:29;;;;;;;21.00;11.33;;;;;;;;;;2056114;28;19925;-90
2023/01/15 00:58:29;;;;;;;19.55;11.25;;;;;;;;;;2064668;28;20485;-90
2023/01/15 00:59:29;;;;;;;;;;;;;;;;;;2064885;28;20382;-90
2023/01/15 01:00:30;;;;;;;17.58;10.45;;;;;;;;;;2064414;28;19917;-90
2023/01/15 01:01:30;;;;;;;18.60;10.60;;;;;;;;;;2073188;28;20025;-91
2023/01/15 01:02:31;;;;;;;20.13;11.77;;;;;;;;;;2072771;28;20050;-90
2023/01/15 01:03:32;;;;;;;;;;;;;;;;;;2073392;28;20066;-90
2023/01/15 01:04:32;;;;;;;19.10;10.77;;;;;;;;;;2073012;28;19909;-90
2023/01/15 01:05:33;;;;;;;;;;;;;;;;;;2073817;28;20032;-90
2023/01/15 01:06:34;;;;;;;19.92;9.90;;;;;;;;;;2072990;28;20020;-89
2023/01/15 01:07:34;;;;;;;18.55;10.15;;;;;;;;;;2065807;28;20122;-93
2023/01/15 01:08:35;;;;;;;;;;;;;;;;;;2058493;28;20021;-95
2023/01/15 01:09:35;;;;;;;16.77;9.87;;;;;;;;;;2058279;28;19910;-94
2023/01/15 01:10:36;;;;;;;;;;;;;;;;;;2058618;28;20031;-95
2023/01/15 01:11:37;;;;;;;17.67;9.47;;;;;;;;;;2057921;28;19917;-94
2023/01/15 01:12:37;;;;;;;18.15;10.95;;;;;;;;;;2074096;28;20125;-95
2023/01/15 01:13:38;;;;;;;;;;;;;;;;;;2074494;28;20030;-95
2023/01/15 01:14:38;;;;;;;16.67;9.70;;;;;;;;;;2073999;28;19920;-94
2023/01/15 01:15:39;;;;;;;;;;;;;;;;;;2074735;28;20125;-93
2023/01/15 01:16:40;;;;;;;17.57;9.27;;;;;;;;;;2066905;28;19910;-96
2023/01/15 01:17:41;;;;;;;15.25;9.10;;;;;;;;;;2066091;28;20034;-94
2023/01/15 01:18:41;;;;;;;;;;;;;;;;;;2058386;28;20458;-93
2023/01/15 01:19:42;;;;;;;15.67;9.00;;;;;;;;;;2058690;28;19914;-95
2023/01/15 01:20:42;;;;;;;;;;;;;;;;;;2066918;28;20093;-92
2023/01/15 01:21:43;;;;;;;20.47;9.90;;;;;;;;;;2058171;28;19910;-92
2023/01/15 01:22:44;;;;;;;16.67;9.35;;;;;;;;;;2074071;28;20026;-95
2023/01/15 01:23:44;;;;;;;;;;;;;;;;;;2074385;28;20528;-94
2023/01/15 01:24:44;;;;;;;17.53;10.27;;;;;;;;;;2058118;28;20068;-93
2023/01/15 01:25:45;;;;;;;18.13;10.48;;;;;;;;;;2058508;28;20078;-94
2023/01/15 01:26:46;;;;;;;;;;;;;;;;;;2058779;28;20057;-95
2023/01/15 01:27:46;;;;;;;16.48;9.68;;;;;;;;;;2074155;28;19937;-93
2023/01/15 01:28:51;;;;;;;17.45;9.27;;;;;;;;;;2073925;28;20488;-94
2023/01/15 01:29:52;;;;;;;16.65;8.88;;;;;;;;;;2066884;28;20037;-93
2023/01/15 01:30:52;;;;;;;;;;;;;;;;;;2066354;28;20113;-95
2023/01/15 01:31:53;;;;;;;16.47;9.53;;;;;;;;;;2058403;28;19946;-95
2023/01/15 01:32:53;;;;;;;;;;;;;;;;;;2074997;28;20025;-95
2023/01/15 01:33:56;;;;;;;17.35;9.93;;;;;;;;;;2074980;28;19917;-94
2023/01/15 01:34:56;;;;;;;15.77;10.00;;;;;;;;;;2058563;28;20078;-94
2023/01/15 01:35:57;;;;;;;19.80;10.13;;;;;;;;;;1722781;28;10001619;-94
2023/01/15 01:36:57;;;;;;;;;;;;;;;;;;2079597;28;20033;-94
2023/01/15 01:37:58;;;;;;;15.93;9.07;;;;;;;;;;2070207;28;19921;-96
2023/01/15 01:39:03;;;;;;;16.55;9.18;;;;;;;;;;2070787;28;20381;-94
2023/01/15 01:40:05;;;;;;;16.52;9.45;;;;;;;;;;2075902;28;20075;-92
2023/01/15 01:41:05;;;;;;;16.52;10.05;;;;;;;;;;2066245;28;20044;-93
2023/01/15 01:42:14;;;;;;;14.68;9.35;;;;;;;;;;1373047;28;10001872;-94
2023/01/15 01:43:24;;;;;;;17.20;10.45;;;;;;;;;;2066797;28;20069;-94
2023/01/15 01:44:33;;;;;;;17.05;9.63;;;;;;;;;;2059800;28;20034;-93
2023/01/15 01:45:34;;;;;;;16.75;9.85;;;;;;;;;;2059714;28;20079;-92
2023/01/15 01:46:35;;;;;;;;;;;;;;;;;;2058173;28;20121;-92
2023/01/15 01:47:35;;;;;;;14.80;9.57;;;;;;;;;;1717961;28;10086335;-92
2023/01/15 01:48:36;;;;;;;;;;;;;;;;;;2065750;28;20177;-93
2023/01/15 01:49:38;;;;;;;16.80;9.87;;;;;;;;;;2057280;28;20415;-94
2023/01/15 01:50:40;;;;;;;17.92;10.50;;;;;;;;;;2057690;28;20031;-93
2023/01/15 01:51:48;;;;;;;19.17;10.85;;;;;;;;;;2057241;28;20026;-92
2023/01/15 01:52:55;;;;;;;18.67;9.85;;;;;;;;;;2058121;28;20035;-92
2023/01/15 01:53:57;;;;;;;21.05;11.18;;;;;;;;;;2057977;28;20058;-92
2023/01/15 01:54:59;;;;;;;19.27;10.32;;;;;;;;;;2057314;28;20454;-92
2023/01/15 01:56:00;;;;;;;18.92;9.95;;;;;;;;;;2057436;28;20023;-95
2023/01/15 01:57:00;;;;;;;;;;;;;;;;;;2057640;28;20027;-93
2023/01/15 01:58:04;;;;;;;17.07;9.77;;;;;;;;;;2065336;28;19964;-92
2023/01/15 01:59:07;;;;;;;18.95;10.50;;;;;;;;;;2065435;28;20037;-93
2023/01/15 02:00:10;;;;;;;16.45;9.32;;;;;;;;;;2057818;28;20085;-92
2023/01/15 02:01:10;;;;;;;18.02;9.80;;;;;;;;;;2057719;28;20501;-92
2023/01/15 02:02:11;;;;;;;;;;;;;;;;;;2057507;28;20033;-93
2023/01/15 02:03:12;;;;;;;17.47;9.83;;;;;;;;;;2056743;28;20417;-92
2023/01/15 02:04:12;;;;;;;;;;;;;;;;;;2056934;28;20197;-93
2023/01/15 02:05:22;;;;;;;19.37;9.83;;;;;;;;;;2057323;28;19969;-92
2023/01/15 02:06:25;;;;;;;18.50;9.25;;;;;;;;;;2058187;28;20087;-94
2023/01/15 02:07:26;;;;;;;16.70;9.40;;;;;;;;;;2065183;28;20030;-94
2023/01/15 02:08:26;;;;;;;;;;;;;;;;;;2065700;28;20053;-92
2023/01/15 02:09:27;;;;;;;22.03;11.10;;;;;;;;;;2057180;28;19940;-95
2023/01/15 02:10:27;;;;;;;;;;;;;;;;;;2057610;28;20053;-93
2023/01/15 02:11:28;;;;;;;16.23;8.73;;;;;;;;;;2065385;28;19981;-95
2023/01/15 02:12:37;;;;;;;19.90;10.48;;;;;;;;;;2065455;28;20060;-94
2023/01/15 02:14:03;;;;;;;18.25;9.73;;;;;;;;;;2074404;28;20022;-94
2023/01/15 02:15:03;;;;;;;16.63;10.10;;;;;;;;;;2069398;28;20501;-95
2023/01/15 02:16:10;;;;;;;;;;;;;;;;;;2073989;28;20102;-94
2023/01/15 02:17:15;;;;;;;16.13;9.35;;;;;;;;;;2073235;28;19917;-93
2023/01/15 02:18:26;;;;;;;20.58;11.20;;;;;;;;;;2073669;28;20107;-92
2023/01/15 02:19:57;;;;;;;18.33;11.70;;;;;;;;;;2073127;28;20427;-93
2023/01/15 02:21:08;;;;;;;19.70;11.02;;;;;;;;;;2070320;28;20030;-93
2023/01/15 02:22:15;;;;;;;;;;;;;;;;;;2068640;28;20077;-93
2023/01/15 02:23:47;;;;;;;20.80;10.65;;;;;;;;;;2063278;28;19925;-92
2023/01/15 02:25:07;;;;;;;20.92;10.73;;;;;;;;;;2066859;28;20194;-93
2023/01/15 02:26:45;;;;;;;16.98;10.10;;;;;;;;;;2065335;28;20030;-93
2023/01/15 02:28:10;;;;;;;20.70;10.50;;;;;;;;;;2037481;29;20041;-94
2023/01/15 02:29:26;;;;;;;23.35;11.00;;;;;;;;;;2064036;28;20038;-94
2023/01/15 02:30:31;;;;;;;17.02;9.25;;;;;;;;;;2060074;28;20098;-93
2023/01/15 02:31:37;;;;;;;20.25;11.27;;;;;;;;;;2057041;28;20034;-96
2023/01/15 02:32:50;;;;;;;17.95;10.88;;;;;;;;;;2057368;28;20018;-93
2023/01/15 02:33:56;;;;;;;20.38;11.40;;;;;;;;;;2066203;28;20168;-92
2023/01/15 02:35:00;;;;;;;21.45;11.65;;;;;;;;;;2065976;28;20109;-92
2023/01/15 02:36:05;;;;;;;22.65;11.80;;;;;;;;;;2063778;28;20022;-92
2023/01/15 02:37:09;;;;;;;22.17;11.85;;;;;;;;;;2066102;28;20087;-93
2023/01/15 02:38:14;;;;;;;19.35;10.93;;;;;;;;;;2058536;28;20035;-92
2023/01/15 02:39:16;;;;;;;21.83;12.48;;;;;;;;;;2065523;28;20093;-93
2023/01/15 02:40:22;;;;;;;21.92;11.48;;;;;;;;;;1720077;28;10226228;-93
2023/01/15 02:41:28;;;;;;;21.67;12.18;;;;;;;;;;2075785;28;20041;-93
2023/01/15 02:42:30;;;;;;;18.33;11.35;;;;;;;;;;1732299;28;10001581;-93
2023/01/15 02:43:34;;;;;;;26.80;12.73;;;;;;;;;;2070509;28;20128;-92
2023/01/15 02:44:40;;;;;;;26.60;12.68;;;;;;;;;;2061968;28;20110;-92
2023/01/15 02:45:42;;;;;;;24.52;13.57;;;;;;;;;;2065988;28;20034;-93
2023/01/15 02:46:44;;;;;;;25.83;12.55;;;;;;;;;;2081010;28;20034;-92
2023/01/15 02:47:46;;;;;;;29.10;13.52;;;;;;;;;;2072033;28;20030;-93
2023/01/15 02:48:52;;;;;;;26.67;12.63;;;;;;;;;;2056624;28;20035;-92
2023/01/15 02:49:56;;;;;;;31.63;14.27;;;;;;;;;;2073611;28;20025;-94
2023/01/15 02:51:10;;;;;;;33.08;14.38;;;;;;;;;;2072292;28;20022;-92
2023/01/15 02:52:23;;;;;;;33.47;14.65;;;;;;;;;;2066931;28;20030;-93
2023/01/15 02:53:27;;;;;;;36.95;15.77;;;;;;;;;;2073667;28;20129;-95
2023/01/15 02:54:32;;;;;;;41.60;18.20;;;;;;;;;;2064833;28;20117;-93
2023/01/15 02:55:37;;;;;;;52.10;20.25;;;;;;;;;;2065434;28;20042;-92
2023/01/15 02:56:40;;;;;;;48.35;19.80;;;;;;;;;;2064762;28;20026;-94
2023/01/15 02:57:42;;;;;;;52.00;19.25;;;;;;;;;;2065019;28;20069;-94
2023/01/15 02:58:44;;;;;;;54.03;19.95;;;;;;;;;;2072978;28;20200;-94
2023/01/15 02:59:47;;;;;;;51.55;21.02;;;;;;;;;;2064385;28;20026;-94
2023/01/15 03:00:50;;;;;;;53.85;19.50;;;;;;;;;;2072889;28;20115;-93
2023/01/15 03:02:03;;;;;;;61.58;23.00;;;;;;;;;;2072474;28;20125;-94
2023/01/15 03:03:17;;;;;;;58.33;21.70;;;;;;;;;;2058072;28;20093;-95
2023/01/15 03:04:36;;;;;;;57.63;21.33;;;;;;;;;;2058090;28;20216;-94
2023/01/15 03:05:56;;;;;;;51.30;20.98;;;;;;;;;;2059065;28;20418;-94
2023/01/15 03:07:08;;;;;;;56.78;23.05;;;;;;;;;;2059166;28;20082;-93
2023/01/15 03:08:10;;;;;;;59.28;21.70;;;;;;;;;;2058133;28;20029;-94
2023/01/15 03:09:12;;;;;;;61.78;22.73;;;;;;;;;;2056685;28;20018;-94
2023/01/15 03:10:13;;;;;;;55.55;21.23;;;;;;;;;;2056798;28;20046;-93
2023/01/15 03:11:17;;;;;;;67.78;25.08;;;;;;;;;;2072836;28;20076;-94
2023/01/15 03:12:32;;;;;;;59.58;21.02;;;;;;;;;;2072087;28;20030;-93
2023/01/15 03:13:41;;;;;;;63.72;23.20;;;;;;;;;;2072128;28;20041;-94
2023/01/15 03:15:06;;;;;;;62.13;23.73;;;;;;;;;;2071018;28;20034;-93
2023/01/15 03:16:36;;;;;;;66.82;22.90;;;;;;;;;;2065784;28;20042;-94
2023/01/15 03:17:48;;;;;;;59.25;20.67;;;;;;;;;;2069900;28;20021;-93
2023/01/15 03:18:58;;;;;;;52.47;21.23;;;;;;;;;;2068243;28;20010;-93
2023/01/15 03:20:05;;;;;;;61.78;23.20;;;;;;;;;;2067752;28;20019;-94
2023/01/15 03:21:10;;;;;;;61.40;22.63;;;;;;;;;;2067608;28;20079;-93
2023/01/15 03:22:26;;;;;;;52.10;21.85;;;;;;;;;;2062820;28;20019;-94
2023/01/15 03:23:29;;;;;;;52.45;20.70;;;;;;;;;;2076328;28;20022;-93
2023/01/15 03:24:41;;;;;;;51.33;20.73;;;;;;;;;;2066117;28;20454;-93
2023/01/15 03:25:46;;;;;;;53.90;21.52;;;;;;;;;;2066267;28;20106;-93
2023/01/15 03:26:47;;;;;;;54.63;21.30;;;;;;;;;;2073698;28;20496;-93
2023/01/15 03:27:47;;;;;;;;;;;;;;;;;;2081464;28;20135;-93
2023/01/15 03:28:49;;;;;;;49.23;18.90;;;;;;;;;;2075800;28;19913;-93
2023/01/15 03:29:58;;;;;;;43.65;19.15;;;;;;;;;;2072757;28;20022;-92
2023/01/15 03:31:16;;;;;;;45.77;18.89;;;;;;;;;;1644087;28;10002927;-95
2023/01/15 03:32:18;;;;;;;45.92;20.08;;;;;;;;;;2073826;28;20562;-94
2023/01/15 03:33:19;;;;;;;45.63;18.63;;;;;;;;;;2065964;28;20049;-96
2023/01/15 03:34:19;;;;;;;;;;;;;;;;;;2057173;28;20015;-95
2023/01/15 03:35:51;;;;;;;39.77;17.47;;;;;;;;;;2064789;28;20352;-95
2023/01/15 03:36:52;;;;;;;36.25;15.98;;;;;;;;;;2077118;28;20025;-93
2023/01/15 03:37:52;;;;;;;;;;;;;;;;;;2073306;28;20420;-93
2023/01/15 03:38:53;;;;;;;34.97;16.83;;;;;;;;;;2056874;28;19918;-96
2023/01/15 03:39:56;;;;;;;41.08;17.40;;;;;;;;;;2073057;28;20026;-96
2023/01/15 03:41:15;;;;;;;36.13;18.15;;;;;;;;;;2071356;28;20481;-90
2023/01/15 03:42:34;;;;;;;37.40;16.77;;;;;;;;;;2066067;28;20080;-90
2023/01/15 03:43:59;;;;;;;36.83;16.02;;;;;;;;;;2079384;28;20501;-90
2023/01/15 03:45:13;;;;;;;41.72;17.83;;;;;;;;;;2068071;28;20026;-89
2023/01/15 03:46:23;;;;;;;39.95;16.98;;;;;;;;;;2067734;28;20018;-90
2023/01/15 03:47:39;;;;;;;35.63;16.52;;;;;;;;;;2072047;28;20113;-90
2023/01/15 03:48:51;;;;;;;34.97;16.20;;;;;;;;;;2062899;28;20037;-90
2023/01/15 03:50:18;;;;;;;37.72;16.27;;;;;;;;;;2056479;28;20588;-91
2023/01/15 03:51:24;;;;;;;35.10;14.85;;;;;;;;;;2066831;28;20370;-91
2023/01/15 03:52:41;;;;;;;34.45;16.20;;;;;;;;;;2063434;28;20033;-91
2023/01/15 03:53:48;;;;;;;35.72;16.02;;;;;;;;;;2065515;28;20271;-91
2023/01/15 03:54:52;;;;;;;36.60;17.20;;;;;;;;;;2063143;28;20033;-91
2023/01/15 03:56:14;;;;;;;32.20;14.35;;;;;;;;;;2055450;28;20090;-91
2023/01/15 03:57:28;;;;;;;31.17;15.07;;;;;;;;;;2066210;28;20141;-91
2023/01/15 03:58:42;;;;;;;35.25;14.95;;;;;;;;;;2062929;28;20481;-91
2023/01/15 04:00:09;;;;;;;32.97;16.02;;;;;;;;;;2065890;28;20018;-88
2023/01/15 04:01:13;;;;;;;31.98;15.32;;;;;;;;;;1728902;28;10002152;-89
2023/01/15 04:02:15;;;;;;;38.15;15.95;;;;;;;;;;2071571;28;20029;-91
2023/01/15 04:03:18;;;;;;;35.35;15.25;;;;;;;;;;2071601;28;20053;-90
2023/01/15 04:04:19;;;;;;;32.67;15.68;;;;;;;;;;2062782;28;20046;-91
2023/01/15 04:05:20;;;;;;;;;;;;;;;;;;2055636;28;20034;-90
2023/01/15 04:06:23;;;;;;;33.72;15.18;;;;;;;;;;2054957;28;19914;-89
2023/01/15 04:07:24;;;;;;;27.95;15.27;;;;;;;;;;2063789;28;20045;-90
2023/01/15 04:08:28;;;;;;;32.22;14.80;;;;;;;;;;2062613;28;20022;-90
2023/01/15 04:09:29;;;;;;;34.97;15.27;;;;;;;;;;2063234;28;20565;-90
2023/01/15 04:10:29;;;;;;;35.83;15.35;;;;;;;;;;2071085;28;20026;-89
2023/01/15 04:11:30;;;;;;;;;;;;;;;;;;2063622;28;20050;-89
2023/01/15 04:12:31;;;;;;;33.03;15.07;;;;;;;;;;2054820;28;19910;-90
2023/01/15 04:13:32;;;;;;;30.90;14.95;;;;;;;;;;2071252;28;20109;-90
2023/01/15 04:14:32;;;;;;;;;;;;;;;;;;2071616;28;20044;-91
2023/01/15 04:15:33;;;;;;;31.57;14.60;;;;;;;;;;2055013;28;20036;-90
2023/01/15 04:16:33;;;;;;;34.20;15.68;;;;;;;;;;2054985;28;20517;-90
2023/01/15 04:17:34;;;;;;;;;;;;;;;;;;2063404;28;20026;-90
2023/01/15 04:18:34;;;;;;;32.50;15.90;;;;;;;;;;2070697;28;20395;-90
2023/01/15 04:19:34;;;;;;;;;;;;;;;;;;2071938;28;20077;-89
2023/01/15 04:20:35;;;;;;;32.22;15.20;;;;;;;;;;2071828;28;19917;-90
2023/01/15 04:21:35;;;;;;;35.90;14.95;;;;;;;;;;2063133;28;20023;-90
2023/01/15 04:22:35;;;;;;;;;;;;;;;;;;2055314;28;20015;-89
2023/01/15 04:23:36;;;;;;;30.73;13.77;;;;;;;;;;2054789;28;19945;-90
2023/01/15 04:24:37;;;;;;;;;;;;;;;;;;2071463;28;20105;-90
2023/01/15 04:25:38;;;;;;;28.53;14.13;;;;;;;;;;2079683;28;20263;-90
2023/01/15 04:26:38;;;;;;;29.88;14.25;;;;;;;;;;2071950;28;20022;-91
2023/01/15 04:27:39;;;;;;;36.03;15.52;;;;;;;;;;2071773;28;20405;-90
2023/01/15 04:28:40;;;;;;;;;;;;;;;;;;2072381;28;20383;-90
2023/01/15 04:29:40;;;;;;;29.13;16.07;;;;;;;;;;2071576;28;19979;-91
2023/01/15 04:30:43;;;;;;;;;;;;;;;;;;2072284;28;20032;-91
2023/01/15 04:31:43;;;;;;;31.50;14.10;;;;;;;;;;2071792;28;19925;-91
2023/01/15 04:32:47;;;;;;;;;;;;;;;;;;2072201;28;20069;-89
2023/01/15 04:33:47;;;;;;;27.27;14.07;;;;;;;;;;2071798;28;20369;-90
2023/01/15 04:34:49;;;;;;;;;;;;;;;;;;2079170;28;20045;-89
2023/01/15 04:35:49;;;;;;;;;;;;;;;;;;2071370;28;19917;-89
2023/01/15 04:36:50;;;;;;;30.33;15.57;;;;;;;;;;2062631;28;19910;-89
2023/01/15 04:37:57;;;;;;;30.60;14.15;;;;;;;;;;2071460;28;20022;-90
2023/01/15 04:38:58;;;;;;;30.73;15.75;;;;;;;;;;2062711;28;20417;-90
2023/01/15 04:40:00;;;;;;;26.55;14.65;;;;;;;;;;2062867;28;20030;-90
2023/01/15 04:44:58;;;;;;;31.65;15.75;;;;;;;;;;2071474;28;20033;-90
2023/01/15 04:45:58;;;;;;;;;;;;;;;;;;2072397;28;20470;-89
2023/01/15 04:46:59;;;;;;;35.10;16.30;;;;;;;;;;2071489;28;20002;-90
2023/01/15 04:47:59;;;;;;;;;;;;;;;;;;2063462;28;20113;-89
2023/01/15 04:48:59;;;;;;;32.80;15.83;;;;;;;;;;2062869;28;20432;-88
2023/01/15 04:50:00;;;;;;;;;;;;;;;;;;2071905;28;20029;-90
2023/01/15 04:51:04;;;;;;;34.83;16.70;;;;;;;;;;2071828;28;19909;-90
2023/01/15 04:52:08;;;;;;;28.98;15.80;;;;;;;;;;2078970;28;20078;-90
2023/01/15 04:53:08;;;;;;;30.73;15.38;;;;;;;;;;2072330;28;20449;-96
2023/01/15 04:54:10;;;;;;;;;;;;;;;;;;2073930;28;20098;-95
2023/01/15 04:55:11;;;;;;;29.80;15.95;;;;;;;;;;2070403;28;20049;-91
2023/01/15 04:56:12;;;;;;;27.73;11.75;;;;;;;;;;2063188;28;20037;-91
2023/01/15 04:57:12;;;;;;;;;;;;;;;;;;2063676;28;20508;-92
2023/01/15 04:58:12;;;;;;;20.33;11.60;;;;;;;;;;2062907;28;19988;-90
2023/01/15 04:59:16;;;;;;;23.83;11.85;;;;;;;;;;2071722;28;20042;-91
2023/01/15 05:00:17;;;;;;;29.08;12.68;;;;;;;;;;2079710;28;20018;-91
2023/01/15 05:01:18;;;;;;;;;;;;;;;;;;2081994;28;20022;-90
2023/01/15 05:02:18;;;;;;;27.70;13.47;;;;;;;;;;2073173;28;19909;-90
2023/01/15 05:03:18;;;;;;;;;;;;;;;;;;2069053;28;20323;-90
2023/01/15 05:04:19;;;;;;;27.30;12.87;;;;;;;;;;2074461;28;19967;-89
2023/01/15 05:05:19;;;;;;;;;;;;;;;;;;2073894;28;20461;-89
2023/01/15 05:06:19;;;;;;;22.63;12.47;;;;;;;;;;2071916;28;20314;-89
2023/01/15 05:07:20;;;;;;;29.67;14.23;;;;;;;;;;1730715;28;10001160;-89
2023/01/15 05:08:20;;;;;;;;;;;;;;;;;;2079781;28;20045;-89
2023/01/15 05:09:21;;;;;;;32.90;13.50;;;;;;;;;;2064575;28;19916;-89
2023/01/15 05:10:21;;;;;;;;;;;;;;;;;;2063606;28;20440;-89
2023/01/15 05:11:22;;;;;;;30.37;13.67;;;;;;;;;;2072750;28;19929;-90
2023/01/15 05:12:22;;;;;;;;;;;;;;;;;;2074030;28;20026;-89
2023/01/15 05:13:22;;;;;;;27.83;13.63;;;;;;;;;;2064058;28;19910;-89
2023/01/15 05:14:23;;;;;;;;;;;;;;;;;;2072891;28;20051;-89
2023/01/15 05:15:23;;;;;;;25.80;12.80;;;;;;;;;;2080753;28;20013;-89
2023/01/15 05:16:24;;;;;;;;;;;;;;;;;;2064592;28;20034;-88
2023/01/15 05:17:25;;;;;;;23.90;12.30;;;;;;;;;;2064244;28;19913;-90
2023/01/15 05:18:26;;;;;;;26.42;13.35;;;;;;;;;;2080647;28;20063;-89
2023/01/15 05:19:27;;;;;;;30.13;13.48;;;;;;;;;;2082563;28;20400;-90
2023/01/15 05:20:27;;;;;;;;;;;;;;;;;;2071981;28;20029;-90
2023/01/15 05:21:31;;;;;;;28.45;14.35;;;;;;;;;;2065225;28;19910;-90
2023/01/15 05:22:31;;;;;;;31.00;15.13;;;;;;;;;;2069848;28;20084;-90
2023/01/15 05:23:31;;;;;;;;;;;;;;;;;;2078808;28;20057;-90
2023/01/15 05:24:32;;;;;;;29.65;14.20;;;;;;;;;;1714067;28;10245283;-90
2023/01/15 05:25:35;;;;;;;28.70;14.05;;;;;;;;;;2057985;28;20544;-89
2023/01/15 05:26:35;;;;;;;29.63;14.88;;;;;;;;;;2064891;28;20139;-90
2023/01/15 05:27:35;;;;;;;;;;;;;;;;;;2064985;28;20026;-91
2023/01/15 05:28:38;;;;;;;29.10;13.27;;;;;;;;;;2056624;28;19926;-90
2023/01/15 05:29:39;;;;;;;28.48;13.98;;;;;;;;;;2065127;28;20608;-90
2023/01/15 05:30:39;;;;;;;;;;;;;;;;;;2080733;28;20025;-89
2023/01/15 05:31:41;;;;;;;28.38;13.98;;;;;;;;;;2072455;28;19910;-90
2023/01/15 05:32:44;;;;;;;28.38;14.25;;;;;;;;;;2064185;28;20255;-90
2023/01/15 05:33:47;;;;;;;29.05;14.82;;;;;;;;;;2065313;28;20026;-93
2023/01/15 05:34:47;;;;;;;31.00;15.52;;;;;;;;;;2055059;28;20066;-94
2023/01/15 05:35:47;;;;;;;;;;;;;;;;;;2065407;28;20019;-94
2023/01/15 05:36:48;;;;;;;28.67;15.60;;;;;;;;;;2057165;28;20428;-94
2023/01/15 05:37:48;;;;;;;;;;;;;;;;;;2073718;28;20026;-94
2023/01/15 05:38:49;;;;;;;26.53;13.50;;;;;;;;;;2073295;28;19913;-95
2023/01/15 05:39:49;;;;;;;;;;;;;;;;;;2057702;28;20531;-95
2023/01/15 05:40:49;;;;;;;25.20;12.47;;;;;;;;;;2057223;28;19914;-94
2023/01/15 05:41:50;;;;;;;;;;;;;;;;;;2057754;28;20033;-95
2023/01/15 05:42:50;;;;;;;27.48;13.80;;;;;;;;;;2057318;28;19961;-94
2023/01/15 05:43:50;;;;;;;;;;;;;;;;;;2057429;28;20433;-94
2023/01/15 05:44:51;;;;;;;21.53;12.23;;;;;;;;;;2065425;28;19921;-94
2023/01/15 05:45:52;;;;;;;;;;;;;;;;;;2065810;28;20062;-94
2023/01/15 05:46:55;;;;;;;28.02;13.07;;;;;;;;;;2056950;28;20338;-94
2023/01/15 05:47:55;;;;;;;27.95;13.23;;;;;;;;;;2073109;28;20376;-93
2023/01/15 05:49:00;;;;;;;;;;;;;;;;;;2073396;28;20021;-94
2023/01/15 05:50:00;;;;;;;25.17;13.90;;;;;;;;;;2057172;28;19910;-93
2023/01/15 05:51:01;;;;;;;;;;;;;;;;;;2057059;28;20033;-93
2023/01/15 05:52:02;;;;;;;28.95;14.95;;;;;;;;;;1709373;28;10322148;-94
2023/01/15 05:53:02;;;;;;;27.55;15.07;;;;;;;;;;2073313;28;20139;-95
2023/01/15 05:54:03;;;;;;;;;;;;;;;;;;2073422;28;20021;-95
2023/01/15 05:55:04;;;;;;;30.63;16.95;;;;;;;;;;2057067;28;19917;-93
2023/01/15 05:56:05;;;;;;;32.75;18.75;;;;;;;;;;2064981;28;20088;-94
2023/01/15 05:57:05;;;;;;;;;;;;;;;;;;2081236;28;20159;-94
2023/01/15 05:58:06;;;;;;;29.73;15.73;;;;;;;;;;2072597;28;20253;-93
2023/01/15 05:59:07;;;;;;;;;;;;;;;;;;2065627;28;20054;-94
2023/01/15 06:00:08;;;;;;;28.53;15.77;;;;;;;;;;2065656;28;19960;-93
2023/01/15 06:01:08;;;;;;;;;;;;;;;;;;2056579;28;20022;-93
2023/01/15 06:02:08;;;;;;;28.52;15.00;;;;;;;;;;2064178;28;20340;-93
2023/01/15 06:03:09;;;;;;;;;;;;;;;;;;2064974;28;20372;-93
2023/01/15 06:04:10;;;;;;;31.00;14.45;;;;;;;;;;2064618;28;19952;-93
2023/01/15 06:05:13;;;;;;;31.38;15.43;;;;;;;;;;2065622;28;20022;-93
2023/01/15 06:06:15;;;;;;;28.60;15.13;;;;;;;;;;2073865;28;20053;-92
2023/01/15 06:07:19;;;;;;;32.08;16.05;;;;;;;;;;2065188;28;20402;-94
2023/01/15 06:08:20;;;;;;;32.28;16.27;;;;;;;;;;2057434;28;20173;-96
2023/01/15 06:09:28;;;;;;;29.38;15.10;;;;;;;;;;2065801;28;20026;-94
2023/01/15 06:10:33;;;;;;;26.58;13.68;;;;;;;;;;2067363;28;20049;-96
2023/01/15 06:11:37;;;;;;;26.58;15.23;;;;;;;;;;2063306;28;20062;-96
2023/01/15 06:16:37;;;;;;;30.95;15.20;;;;;;;;;;1730353;23;20263;-88
2023/01/15 06:17:37;;;;;;;25.98;13.98;;;;;;;;;;2069190;28;20519;-88
2023/01/15 06:18:38;;;;;;;;;;;;;;;;;;2071800;28;20045;-89
2023/01/15 06:19:38;;;;;;;31.35;15.93;;;;;;;;;;2079879;28;19909;-89
2023/01/15 06:20:39;;;;;;;;;;;;;;;;;;2071770;28;20036;-90
2023/01/15 06:21:40;;;;;;;31.05;14.88;;;;;;;;;;2063146;28;20331;-89
2023/01/15 06:22:40;;;;;;;33.97;16.45;;;;;;;;;;2063583;28;20045;-90
2023/01/15 06:23:41;;;;;;;25.80;13.95;;;;;;;;;;2070979;28;20099;-90
2023/01/15 06:24:42;;;;;;;31.35;15.85;;;;;;;;;;2071296;28;20520;-90
2023/01/15 06:25:42;;;;;;;;;;;;;;;;;;2072207;28;20033;-90
2023/01/15 06:26:42;;;;;;;30.13;15.80;;;;;;;;;;2080671;28;20225;-90
2023/01/15 06:27:43;;;;;;;;;;;;;;;;;;2081034;28;20033;-90
2023/01/15 06:28:46;;;;;;;27.23;14.87;;;;;;;;;;2071755;28;19910;-90
2023/01/15 06:29:57;;;;;;;30.10;14.90;;;;;;;;;;2064039;28;20096;-89
2023/01/15 06:31:03;;;;;;;27.13;14.55;;;;;;;;;;2074982;28;20097;-91
2023/01/15 06:32:03;;;;;;;27.30;14.15;;;;;;;;;;2080199;28;20044;-90
2023/01/15 06:33:04;;;;;;;;;;;;;;;;;;2071739;28;20032;-89
2023/01/15 06:34:05;;;;;;;28.67;13.93;;;;;;;;;;2071165;28;20032;-90
2023/01/15 06:35:05;;;;;;;27.23;12.77;;;;;;;;;;2071156;28;20433;-90
2023/01/15 06:36:09;;;;;;;28.83;14.50;;;;;;;;;;2071584;28;20111;-90